createdAt,value
2023-02-06T00:01:50.385Z,100430.47
2023-02-06T00:04:18.218Z,100433.78
2023-02-06T00:06:46.087Z,100435.03
2023-02-06T00:09:13.599Z,100435.81
2023-02-06T00:11:43.867Z,100436.78
2023-02-06T00:14:11.426Z,100429.44
2023-02-06T00:16:38.945Z,100430.25
2023-02-06T00:19:06.522Z,100434.75
2023-02-06T00:21:34.587Z,100431.53
2023-02-06T00:24:03.308Z,100433.06
2023-02-06T00:26:31.714Z,100433.50
2023-02-06T00:28:59.399Z,100440.69
2023-02-06T00:31:26.944Z,100443.97
2023-02-06T00:33:54.413Z,100443.69
2023-02-06T00:36:21.964Z,100441.59
2023-02-06T00:38:49.746Z,100446.38
2023-02-06T00:41:17.287Z,100448.84
2023-02-06T00:43:44.779Z,100441.59
2023-02-06T00:46:12.876Z,100439.66
2023-02-06T00:48:42.094Z,100452.53
2023-02-06T00:51:09.620Z,100442.88
2023-02-06T00:53:38.076Z,100439.69
2023-02-06T00:56:06.054Z,100444.34
2023-02-06T00:58:33.748Z,100446.44
2023-02-06T01:01:01.306Z,100450.78
2023-02-06T01:03:28.799Z,100447.34
2023-02-06T01:05:56.270Z,100450.31
2023-02-06T01:08:23.813Z,100440.47
2023-02-06T01:10:52.619Z,100437.00
2023-02-06T01:13:20.377Z,100433.69
2023-02-06T01:15:50.789Z,100433.69
2023-02-06T01:18:18.794Z,100438.06
2023-02-06T01:20:46.282Z,100432.25
2023-02-06T01:23:13.892Z,100436.50
2023-02-06T01:25:41.405Z,100428.53
2023-02-06T01:28:09.501Z,100430.97
2023-02-06T01:30:37.146Z,100431.94
2023-02-06T01:33:04.724Z,100430.88
2023-02-06T01:35:32.217Z,100436.28
2023-02-06T01:38:00.959Z,100438.97
2023-02-06T01:40:28.433Z,100433.53
2023-02-06T01:42:57.794Z,100437.72
2023-02-06T01:45:27.815Z,100431.59
2023-02-06T01:48:04.987Z,100430.81
2023-02-06T01:50:35.009Z,100435.97
2023-02-06T01:53:05.061Z,100430.41
2023-02-06T01:55:33.786Z,100430.16
2023-02-06T01:58:03.128Z,100426.03
2023-02-06T02:00:30.855Z,100432.81
2023-02-06T02:02:58.476Z,100436.69
2023-02-06T02:05:26.192Z,100434.59
2023-02-06T02:08:16.989Z,100428.16
2023-02-06T02:10:45.554Z,100430.97
2023-02-06T02:13:13.035Z,100432.53
2023-02-06T02:15:57.206Z,100432.16
2023-02-06T02:19:02.918Z,100429.41
2023-02-06T02:22:11.019Z,100436.84
2023-02-06T02:24:50.199Z,100445.94
2023-02-06T02:27:44.370Z,100438.28
2023-02-06T02:30:53.529Z,100434.53
2023-02-06T02:33:33.178Z,100444.22
2023-02-06T02:36:28.170Z,100447.72
2023-02-06T02:39:17.115Z,100447.59
2023-02-06T02:42:04.163Z,100458.75
2023-02-06T02:44:57.361Z,100460.91
2023-02-06T02:47:32.509Z,100461.91
2023-02-06T02:50:03.423Z,100462.84
2023-02-06T02:52:30.927Z,100465.28
2023-02-06T02:54:58.364Z,100466.94
2023-02-06T02:57:31.469Z,100464.16
2023-02-06T03:00:02.083Z,100464.91
2023-02-06T03:02:39.497Z,100469.53
2023-02-06T03:05:11.859Z,100476.16
2023-02-06T03:08:26.783Z,100472.38
2023-02-06T03:11:09.459Z,100476.66
2023-02-06T03:13:58.250Z,100485.25
2023-02-06T03:16:41.859Z,100477.78
2023-02-06T03:19:19.707Z,100472.03
2023-02-06T03:21:48.478Z,100474.84
2023-02-06T03:24:24.743Z,100471.88
2023-02-06T03:26:58.691Z,100469.13
2023-02-06T03:29:29.641Z,100468.50
2023-02-06T03:32:27.313Z,100473.28
2023-02-06T03:35:27.675Z,100472.16
2023-02-06T03:37:55.169Z,100457.56
2023-02-06T03:40:23.138Z,100449.28
2023-02-06T03:42:56.341Z,100448.44
2023-02-06T03:45:28.733Z,100451.03
2023-02-06T03:48:03.534Z,100457.38
2023-02-06T03:50:33.185Z,100453.00
2023-02-06T03:53:03.047Z,100450.16
2023-02-06T03:55:30.907Z,100452.66
2023-02-06T03:58:08.173Z,100454.66
2023-02-06T04:00:37.031Z,100461.75
2023-02-06T04:03:05.582Z,100455.63
2023-02-06T04:05:33.617Z,100456.94
2023-02-06T04:08:01.192Z,100458.03
2023-02-06T04:10:28.803Z,100464.16
2023-02-06T04:12:56.486Z,100474.44
2023-02-06T04:15:24.750Z,100481.59
2023-02-06T04:18:00.717Z,100474.78
2023-02-06T04:20:29.837Z,100475.88
2023-02-06T04:22:58.680Z,100478.50
2023-02-06T04:25:26.755Z,100483.28
2023-02-06T04:27:54.274Z,100482.72
2023-02-06T04:30:22.073Z,100478.38
2023-02-06T04:32:49.588Z,100481.53
2023-02-06T04:35:17.119Z,100488.44
2023-02-06T04:37:44.614Z,100482.72
2023-02-06T04:40:13.018Z,100485.50
2023-02-06T04:42:40.599Z,100487.88
2023-02-06T04:45:08.908Z,100488.66
2023-02-06T04:47:36.492Z,100492.22
2023-02-06T04:50:05.991Z,100494.16
2023-02-06T04:52:33.662Z,100487.41
2023-02-06T04:55:01.196Z,100486.81
2023-02-06T04:57:28.787Z,100489.03
2023-02-06T04:59:58.690Z,100484.69
2023-02-06T05:02:26.229Z,100490.63
2023-02-06T05:04:54.020Z,100491.59
2023-02-06T05:07:21.521Z,100494.59
2023-02-06T05:09:49.030Z,100499.13
2023-02-06T05:12:16.583Z,100498.91
2023-02-06T05:14:44.027Z,100509.50
2023-02-06T05:17:11.692Z,100504.03
2023-02-06T05:19:39.212Z,100509.97
2023-02-06T05:22:06.646Z,100514.53
2023-02-06T05:24:34.129Z,100528.94
2023-02-06T05:27:04.119Z,100527.94
2023-02-06T05:29:31.682Z,100530.13
2023-02-06T05:31:59.344Z,100538.59
2023-02-06T05:34:27.010Z,100536.66
2023-02-06T05:36:54.567Z,100543.00
2023-02-06T05:39:21.971Z,100553.09
2023-02-06T05:41:49.504Z,100560.00
2023-02-06T05:44:17.004Z,100551.50
2023-02-06T05:46:44.552Z,100548.13
2023-02-06T05:49:12.000Z,100551.88
2023-02-06T05:51:39.415Z,100557.22
2023-02-06T05:54:07.189Z,100554.25
2023-02-06T05:56:34.750Z,100564.53
2023-02-06T05:59:02.216Z,100570.84
2023-02-06T06:01:29.746Z,100576.41
2023-02-06T06:03:57.506Z,100565.31
2023-02-06T06:06:25.018Z,100577.38
2023-02-06T06:08:52.599Z,100580.66
2023-02-06T06:11:20.070Z,100588.41
2023-02-06T06:13:47.558Z,100585.88
2023-02-06T06:16:15.090Z,100581.69
2023-02-06T06:18:42.593Z,100583.69
2023-02-06T06:21:10.022Z,100582.28
2023-02-06T06:23:37.518Z,100588.25
2023-02-06T06:26:05.426Z,100585.50
2023-02-06T06:28:35.062Z,100583.94
2023-02-06T06:31:05.329Z,100590.84
2023-02-06T06:33:33.538Z,100591.03
2023-02-06T06:36:01.283Z,100601.91
2023-02-06T06:38:28.776Z,100604.50
2023-02-06T06:40:56.189Z,100603.31
2023-02-06T06:43:24.206Z,100596.59
2023-02-06T06:45:51.837Z,100598.72
2023-02-06T06:48:19.420Z,100601.50
2023-02-06T06:50:46.858Z,100599.75
2023-02-06T06:53:14.315Z,100606.88
2023-02-06T06:55:41.841Z,100607.84
2023-02-06T06:58:09.292Z,100607.25
2023-02-06T07:00:38.640Z,100598.94
2023-02-06T07:03:06.962Z,100603.72
2023-02-06T07:05:35.236Z,100602.88
2023-02-06T07:08:02.874Z,100617.13
2023-02-06T07:10:30.338Z,100614.34
2023-02-06T07:12:57.876Z,100626.22
2023-02-06T07:15:25.311Z,100619.88
2023-02-06T07:17:52.757Z,100626.63
2023-02-06T07:20:20.398Z,100624.03
2023-02-06T07:22:50.441Z,100633.75
2023-02-06T07:25:21.418Z,100644.41
2023-02-06T07:27:48.969Z,100633.84
2023-02-06T07:30:16.723Z,100636.81
2023-02-06T07:32:44.347Z,100638.84
2023-02-06T07:35:11.874Z,100637.66
2023-02-06T07:37:39.376Z,100641.59
2023-02-06T07:40:07.556Z,100638.81
2023-02-06T07:42:35.092Z,100636.81
2023-02-06T07:45:10.852Z,100638.47
2023-02-06T07:47:38.352Z,100637.97
2023-02-06T07:50:06.848Z,100637.56
2023-02-06T07:52:34.262Z,100653.59
2023-02-06T07:55:01.757Z,100653.59
2023-02-06T07:57:29.297Z,100646.50
2023-02-06T07:59:56.820Z,100657.81
2023-02-06T08:02:24.975Z,100653.03
2023-02-06T08:04:54.702Z,100649.31
2023-02-06T08:07:22.334Z,100652.28
2023-02-06T08:09:49.740Z,100658.38
2023-02-06T08:12:17.233Z,100658.69
2023-02-06T08:14:45.886Z,100657.53
2023-02-06T08:17:13.986Z,100657.50
2023-02-06T08:19:41.509Z,100654.91
2023-02-06T08:22:08.984Z,100656.81
2023-02-06T08:24:36.742Z,100662.81
2023-02-06T08:27:04.368Z,100663.53
2023-02-06T08:29:40.379Z,100662.88
2023-02-06T08:32:10.623Z,100667.00
2023-02-06T08:34:40.101Z,100671.19
2023-02-06T08:37:08.041Z,100677.97
2023-02-06T08:39:35.521Z,100676.19
2023-02-06T08:42:03.191Z,100678.16
2023-02-06T08:44:30.921Z,100682.56
2023-02-06T08:47:09.335Z,100681.63
2023-02-06T08:49:38.219Z,100679.50
2023-02-06T08:52:08.756Z,100677.19
2023-02-06T08:54:38.592Z,100674.78
2023-02-06T08:57:06.813Z,100671.06
2023-02-06T08:59:34.914Z,100677.88
2023-02-06T09:02:02.585Z,100673.97
2023-02-06T09:04:31.942Z,100673.94
2023-02-06T09:06:59.488Z,100676.78
2023-02-06T09:09:29.308Z,100664.31
2023-02-06T09:12:02.146Z,100670.16
2023-02-06T09:14:30.526Z,100663.66
2023-02-06T09:16:58.433Z,100658.25
2023-02-06T09:19:26.865Z,100662.69
2023-02-06T09:22:14.247Z,100659.56
2023-02-06T09:24:41.818Z,100654.34
2023-02-06T09:27:09.327Z,100663.25
2023-02-06T09:29:36.897Z,100662.88
2023-02-06T09:32:04.689Z,100654.41
2023-02-06T09:34:32.173Z,100653.09
2023-02-06T09:37:03.714Z,100657.59
2023-02-06T09:39:32.350Z,100656.09
2023-02-06T09:42:27.059Z,100648.69
2023-02-06T09:45:23.047Z,100651.19
2023-02-06T09:48:16.860Z,100653.94
2023-02-06T09:51:27.522Z,100649.09
2023-02-06T09:54:29.811Z,100650.81
2023-02-06T09:57:15.799Z,100637.53
2023-02-06T10:00:00.492Z,100641.03
2023-02-06T10:03:26.496Z,100640.59
2023-02-06T10:06:09.457Z,100640.50
2023-02-06T10:08:57.757Z,100640.13
2023-02-06T10:11:50.550Z,100637.69
2023-02-06T10:43:51.478Z,100614.72
2023-02-06T10:46:51.064Z,100619.28
2023-02-06T10:49:36.382Z,100618.75
2023-02-06T10:52:29.248Z,100605.75
2023-02-06T10:55:04.555Z,100604.63
2023-02-06T10:57:32.777Z,100607.00
2023-02-06T11:00:07.432Z,100606.75
2023-02-06T11:03:06.174Z,100607.06
2023-02-06T11:05:35.320Z,100601.97
2023-02-06T11:08:20.868Z,100599.91
2023-02-06T11:10:49.122Z,100601.69
2023-02-06T11:13:35.316Z,100598.06
2023-02-06T11:16:10.457Z,100598.34
2023-02-06T11:18:42.466Z,100584.47
2023-02-06T11:21:12.975Z,100582.25
2023-02-06T11:23:43.938Z,100578.34
2023-02-06T11:26:23.203Z,100582.72
2023-02-06T11:28:58.499Z,100585.03
2023-02-06T11:31:45.613Z,100583.47
2023-02-06T11:34:28.212Z,100579.91
2023-02-06T11:36:59.272Z,100566.56
2023-02-06T11:39:34.918Z,100573.72
2023-02-06T11:42:15.445Z,100565.78
2023-02-06T11:44:45.316Z,100565.22
2023-02-06T11:47:37.920Z,100563.72
2023-02-06T11:50:17.107Z,100553.59
2023-02-06T11:52:47.489Z,100565.47
2023-02-06T11:55:23.508Z,100565.69
2023-02-06T11:58:14.234Z,100565.03
2023-02-06T12:00:56.687Z,100575.63
2023-02-06T12:03:50.507Z,100562.81
2023-02-06T12:06:40.039Z,100565.72
2023-02-06T12:09:13.434Z,100562.69
2023-02-06T12:12:36.117Z,100569.91
2023-02-06T12:15:39.782Z,100589.94
2023-02-06T12:18:14.670Z,100592.03
2023-02-06T12:20:59.661Z,100586.09
2023-02-06T12:23:36.679Z,100574.94
2023-02-06T12:26:13.373Z,100573.94
2023-02-06T12:29:15.560Z,100569.16
2023-02-06T12:32:05.692Z,100570.88
2023-02-06T12:34:54.012Z,100571.56
2023-02-06T12:37:41.190Z,100573.38
2023-02-06T12:40:51.986Z,100570.94
2023-02-06T12:43:20.533Z,100569.03
2023-02-06T12:46:22.697Z,100564.09
2023-02-06T12:48:57.257Z,100571.25
2023-02-06T12:51:45.895Z,100566.75
2023-02-06T12:54:39.266Z,100574.56
2023-02-06T12:57:22.028Z,100572.38
2023-02-06T13:00:33.316Z,100566.31
2023-02-06T13:03:28.013Z,100571.97
2023-02-06T13:06:39.497Z,100575.03
2023-02-06T13:09:09.213Z,100570.56
2023-02-06T13:11:40.714Z,100570.28
2023-02-06T13:14:25.503Z,100578.06
2023-02-06T13:17:14.541Z,100584.38
2023-02-06T13:19:41.908Z,100582.13
2023-02-06T13:22:09.243Z,100582.72
2023-02-06T13:24:39.876Z,100585.53
2023-02-06T13:27:08.235Z,100582.72
2023-02-06T13:29:48.825Z,100588.69
2023-02-06T13:32:19.747Z,100594.56
2023-02-06T13:35:02.301Z,100596.44
2023-02-06T13:37:39.668Z,100604.75
2023-02-06T13:40:35.287Z,100601.66
2023-02-06T13:43:10.134Z,100610.59
2023-02-06T13:45:52.767Z,100616.31
2023-02-06T13:49:06.225Z,100620.34
2023-02-06T13:52:06.306Z,100622.53
2023-02-06T13:55:12.470Z,100610.41
2023-02-06T13:58:30.205Z,100627.69
2023-02-06T14:00:59.461Z,100635.78
2023-02-06T14:03:31.811Z,100634.72
2023-02-06T14:06:07.997Z,100644.28
2023-02-06T14:09:01.612Z,100648.56
2023-02-06T14:12:20.258Z,100654.03
2023-02-06T14:15:08.513Z,100647.75
2023-02-06T14:17:51.712Z,100637.56
2023-02-06T14:20:58.758Z,100645.50
2023-02-06T14:24:00.088Z,100662.69
2023-02-06T14:27:25.190Z,100667.47
2023-02-06T14:30:02.593Z,100670.06
2023-02-06T14:32:39.357Z,100668.69
2023-02-06T14:35:27.894Z,100675.34
2023-02-06T14:38:19.503Z,100688.00
2023-02-06T14:40:52.814Z,100696.50
2023-02-06T14:43:28.848Z,100698.94
2023-02-06T14:46:07.555Z,100699.59
2023-02-06T14:48:55.898Z,100702.31
2023-02-06T14:51:34.167Z,100717.97
2023-02-06T14:54:27.106Z,100718.94
2023-02-06T14:57:04.768Z,100721.53
2023-02-06T14:59:32.520Z,100719.03
2023-02-06T15:02:14.409Z,100721.47
2023-02-06T15:04:48.075Z,100726.44
2023-02-06T15:07:28.833Z,100729.84
2023-02-06T15:10:10.797Z,100732.53
2023-02-06T15:12:39.073Z,100735.06
2023-02-06T15:15:26.567Z,100744.53
2023-02-06T15:18:06.501Z,100739.44
2023-02-06T15:20:40.755Z,100743.69
2023-02-06T15:23:48.896Z,100750.50
2023-02-06T15:26:28.426Z,100755.84
2023-02-06T15:29:02.037Z,100761.97
2023-02-06T15:31:30.853Z,100763.75
2023-02-06T15:34:00.783Z,100761.91
2023-02-06T15:36:37.380Z,100771.66
2023-02-06T15:39:08.095Z,100777.13
2023-02-06T15:41:56.666Z,100786.03
2023-02-06T15:44:36.107Z,100784.00
2023-02-06T15:47:08.003Z,100789.03
2023-02-06T15:49:45.787Z,100783.44
2023-02-06T15:52:31.141Z,100797.31
2023-02-06T15:55:01.328Z,100807.88
2023-02-06T15:57:43.830Z,100812.91
2023-02-06T16:00:25.113Z,100810.16
2023-02-06T16:02:58.680Z,100816.78
2023-02-06T16:05:46.300Z,100814.84
2023-02-06T16:08:23.277Z,100818.16
2023-02-06T16:11:27.834Z,100824.94
2023-02-06T16:13:57.724Z,100823.97
2023-02-06T16:16:27.895Z,100829.41
2023-02-06T16:18:58.614Z,100832.94
2023-02-06T16:21:32.475Z,100843.06
2023-02-06T16:24:00.257Z,100844.66
2023-02-06T16:26:41.035Z,100839.97
2023-02-06T16:29:17.357Z,100839.97
2023-02-06T16:31:45.977Z,100848.94
2023-02-06T16:34:42.228Z,100855.72
2023-02-06T16:37:22.085Z,100861.28
2023-02-06T16:39:49.793Z,100868.78
2023-02-06T16:42:42.042Z,100866.25
2023-02-06T16:45:29.929Z,100866.47
2023-02-06T16:48:02.354Z,100865.66
2023-02-06T16:50:31.380Z,100880.38
2023-02-06T16:53:05.065Z,100874.72
2023-02-06T16:55:52.715Z,100885.56
2023-02-06T16:58:26.228Z,100884.44
2023-02-06T17:00:54.727Z,100897.41
2023-02-06T17:03:24.146Z,100888.53
2023-02-06T17:05:54.381Z,100893.34
2023-02-06T17:08:26.010Z,100891.66
2023-02-06T17:10:53.978Z,100893.22
2023-02-06T17:13:26.596Z,100904.59
2023-02-06T17:15:54.337Z,100907.19
2023-02-06T17:18:23.681Z,100908.44
2023-02-06T17:20:56.718Z,100909.16
2023-02-06T17:23:27.341Z,100915.78
2023-02-06T17:26:06.261Z,100914.78
2023-02-06T17:28:37.480Z,100917.88
2023-02-06T17:31:08.079Z,100922.97
2023-02-06T17:33:40.447Z,100922.69
2023-02-06T17:36:40.909Z,100921.91
2023-02-06T17:39:08.994Z,100926.03
2023-02-06T17:41:36.587Z,100915.34
2023-02-06T17:44:05.852Z,100920.19
2023-02-06T17:46:33.532Z,100923.19
2023-02-06T17:49:02.387Z,100925.06
2023-02-06T17:51:30.244Z,100926.69
2023-02-06T17:53:59.172Z,100924.81
2023-02-06T17:56:27.023Z,100929.25
2023-02-06T17:58:54.490Z,100928.13
2023-02-06T18:01:23.846Z,100937.81
2023-02-06T18:03:51.928Z,100939.78
2023-02-06T18:06:21.224Z,100946.56
2023-02-06T18:08:51.170Z,100944.84
2023-02-06T18:11:23.846Z,100949.94
2023-02-06T18:13:56.124Z,100954.88
2023-02-06T18:16:28.975Z,100958.28
2023-02-06T18:19:00.135Z,100955.09
2023-02-06T18:21:30.985Z,100957.16
2023-02-06T18:23:59.371Z,100961.91
2023-02-06T18:26:27.813Z,100968.59
2023-02-06T18:28:57.571Z,100970.25
2023-02-06T18:31:33.441Z,100972.75
2023-02-06T18:34:08.910Z,100979.28
2023-02-06T18:36:38.109Z,100985.00
2023-02-06T18:39:07.198Z,100980.09
2023-02-06T18:41:56.619Z,100982.97
2023-02-06T18:44:25.886Z,100990.22
2023-02-06T18:46:54.388Z,100988.59
2023-02-06T18:49:23.543Z,100992.63
2023-02-06T18:51:51.856Z,101000.50
2023-02-06T18:54:21.333Z,100994.66
2023-02-06T18:56:50.878Z,100995.09
2023-02-06T18:59:21.594Z,101000.94
2023-02-06T19:01:52.001Z,100999.78
2023-02-06T19:04:22.839Z,101000.16
2023-02-06T19:06:52.163Z,101005.44
2023-02-06T19:09:21.896Z,101013.69
2023-02-06T19:11:51.089Z,101015.34
2023-02-06T19:14:22.620Z,101017.41
2023-02-06T19:16:52.280Z,101004.91
2023-02-06T19:19:23.082Z,101014.28
2023-02-06T19:21:52.189Z,101008.28
2023-02-06T19:24:20.109Z,101002.44
2023-02-06T19:26:52.948Z,101013.50
2023-02-06T19:29:34.738Z,101017.13
2023-02-06T19:32:10.813Z,101017.50
2023-02-06T19:34:42.060Z,101015.88
2023-02-06T19:37:13.527Z,101019.22
2023-02-06T19:39:44.049Z,101024.19
2023-02-06T19:42:20.403Z,101022.38
2023-02-06T19:44:54.860Z,101020.94
2023-02-06T19:47:26.391Z,101030.59
2023-02-06T19:49:54.054Z,101025.50
2023-02-06T19:52:21.785Z,101035.41
2023-02-06T19:54:51.040Z,101026.53
2023-02-06T19:57:40.780Z,101035.19
2023-02-06T20:00:14.530Z,101045.66
2023-02-06T20:02:51.475Z,101030.22
2023-02-06T20:05:26.262Z,101035.13
2023-02-06T20:07:57.259Z,101035.00
2023-02-06T20:10:25.492Z,101028.94
2023-02-06T20:12:54.892Z,101036.13
2023-02-06T20:15:23.558Z,101020.63
2023-02-06T20:17:52.352Z,101021.38
2023-02-06T20:20:27.002Z,101036.19
2023-02-06T20:22:59.268Z,101026.00
2023-02-06T20:25:27.901Z,101023.00
2023-02-06T20:27:56.578Z,101022.16
2023-02-06T20:33:17.155Z,101030.09
2023-02-06T20:35:52.809Z,101027.28
2023-02-06T20:38:20.898Z,101025.09
2023-02-06T20:40:54.018Z,101026.41
2023-02-06T20:43:22.882Z,101022.69
2023-02-06T20:45:50.497Z,101023.84
2023-02-06T20:48:18.202Z,101031.00
2023-02-06T20:50:45.811Z,101029.69
2023-02-06T20:53:15.317Z,101030.47
2023-02-06T20:55:47.314Z,101024.88
2023-02-06T20:58:16.902Z,101036.59
2023-02-06T21:00:45.981Z,101032.84
2023-02-06T21:03:15.909Z,101026.00
2023-02-06T21:05:43.625Z,101026.97
2023-02-06T21:08:13.126Z,101021.06
2023-02-06T21:10:40.810Z,101028.47
2023-02-06T21:13:08.826Z,101019.91
2023-02-06T21:15:40.110Z,101021.34
2023-02-06T21:18:08.856Z,101032.66
2023-02-06T21:20:36.652Z,101021.69
2023-02-06T21:23:06.503Z,101019.56
2023-02-06T21:25:37.111Z,101024.50
2023-02-06T21:28:07.025Z,101031.09
2023-02-06T21:30:35.482Z,101026.28
2023-02-06T21:33:04.772Z,101035.41
2023-02-06T21:35:33.853Z,101035.41
2023-02-06T21:38:01.390Z,101035.47
2023-02-06T21:40:30.002Z,101040.47
2023-02-06T21:42:59.872Z,101044.94
2023-02-06T21:45:27.420Z,101035.69
2023-02-06T21:47:55.443Z,101041.00
2023-02-06T21:50:24.702Z,101042.75
2023-02-06T21:52:52.182Z,101041.97
2023-02-06T21:55:19.688Z,101045.47
2023-02-06T21:57:47.668Z,101049.06
2023-02-06T22:00:15.697Z,101053.97
2023-02-06T22:02:43.735Z,101061.31
2023-02-06T22:05:11.241Z,101063.09
2023-02-06T22:07:38.965Z,101067.09
2023-02-06T22:10:07.964Z,101063.53
2023-02-06T22:12:36.778Z,101057.59
2023-02-06T22:15:04.736Z,101060.78
2023-02-06T22:17:32.244Z,101066.75
2023-02-06T22:20:19.736Z,101074.91
2023-02-06T22:22:48.675Z,101069.19
2023-02-06T22:25:16.522Z,101074.53
2023-02-06T22:27:44.056Z,101072.34
2023-02-06T22:30:12.984Z,101080.69
2023-02-06T22:32:41.054Z,101079.28
2023-02-06T22:35:08.952Z,101076.06
2023-02-06T22:37:36.555Z,101075.41
2023-02-06T22:40:07.374Z,101068.50
2023-02-06T22:42:35.406Z,101074.38
2023-02-06T22:45:03.245Z,101072.75
2023-02-06T22:47:32.384Z,101075.56
2023-02-06T22:49:59.899Z,101072.25
2023-02-06T22:52:46.077Z,101076.88
2023-02-06T22:55:13.548Z,101079.03
2023-02-06T22:57:41.733Z,101083.28
2023-02-06T23:00:14.799Z,101084.88
2023-02-06T23:02:42.721Z,101082.47
2023-02-06T23:05:10.687Z,101084.97
2023-02-06T23:07:38.288Z,101088.16
2023-02-06T23:10:06.318Z,101089.78
2023-02-06T23:12:33.793Z,101093.31
2023-02-06T23:15:01.255Z,101097.28
2023-02-06T23:17:28.713Z,101090.91
2023-02-06T23:19:56.146Z,101098.75
2023-02-06T23:22:23.661Z,101098.75
2023-02-06T23:24:51.879Z,101095.59
2023-02-06T23:27:21.018Z,101108.47
2023-02-06T23:29:48.434Z,101105.31
2023-02-06T23:32:15.855Z,101103.91
2023-02-06T23:34:43.258Z,101109.63
2023-02-06T23:37:10.784Z,101117.22
2023-02-06T23:39:38.364Z,101118.25
2023-02-06T23:42:05.996Z,101115.03
2023-02-06T23:44:33.476Z,101116.44
2023-02-06T23:47:00.957Z,101119.03
2023-02-06T23:49:28.452Z,101120.81
2023-02-06T23:51:55.897Z,101125.19
2023-02-06T23:54:23.461Z,101130.19
2023-02-06T23:56:51.003Z,101132.53
2023-02-06T23:59:18.561Z,101131.97
